createdAt,value
2018-03-18T00:02:52.710Z,100868.36
2018-03-18T00:07:54.099Z,100889.54
2018-03-18T00:12:55.584Z,100890.09
2018-03-18T00:17:56.997Z,100879.83
2018-03-18T00:22:58.383Z,100901.61
2018-03-18T00:27:59.892Z,100901.98
2018-03-18T00:33:01.301Z,100893.22
2018-03-18T00:38:02.662Z,100882.40
2018-03-18T00:43:04.982Z,100909.79
2018-03-18T00:48:06.371Z,100914.49
2018-03-18T00:53:07.808Z,100914.08
2018-03-18T00:58:09.253Z,100923.72
2018-03-18T01:03:10.724Z,100907.52
2018-03-18T01:08:12.164Z,100916.91
2018-03-18T01:13:14.508Z,100897.29
2018-03-18T01:18:16.675Z,100903.97
2018-03-18T01:23:18.633Z,100906.78
2018-03-18T01:28:20.374Z,100905.36
2018-03-18T01:33:22.073Z,100898.13
2018-03-18T01:38:24.020Z,100913.22
2018-03-18T01:43:25.471Z,100898.48
2018-03-18T01:48:27.300Z,100889.40
2018-03-18T01:53:28.912Z,100892.02
2018-03-18T01:58:31.069Z,100871.39
2018-03-18T02:03:32.453Z,100886.17
2018-03-18T02:08:33.871Z,100894.45
2018-03-18T02:13:35.670Z,100897.80
2018-03-18T02:23:45.747Z,100894.98
2018-03-18T02:28:47.984Z,100902.31
2018-03-18T02:33:49.364Z,100883.45
2018-03-18T02:38:51.200Z,100885.69
2018-03-18T02:43:52.663Z,100879.45
2018-03-18T02:48:54.824Z,100879.33
2018-03-18T02:53:56.488Z,100876.94
2018-03-18T02:58:58.047Z,100881.27
2018-03-18T03:04:00.744Z,100885.31
2018-03-18T03:09:02.994Z,100889.62
2018-03-18T03:14:04.369Z,100890.48
2018-03-18T03:19:06.678Z,100888.83
2018-03-18T03:24:08.071Z,100888.02
2018-03-18T03:29:09.755Z,100881.95
2018-03-18T03:34:11.319Z,100887.47
2018-03-18T03:39:13.254Z,100875.16
2018-03-18T03:44:14.980Z,100886.67
2018-03-18T03:49:17.371Z,100916.77
2018-03-18T03:54:19.059Z,100892.28
2018-03-18T03:59:21.563Z,100892.51
2018-03-18T04:04:22.960Z,100891.06
2018-03-18T04:09:24.737Z,100904.02
2018-03-18T04:14:26.071Z,100900.55
2018-03-18T04:19:27.486Z,100907.25
2018-03-18T04:24:29.389Z,100898.69
2018-03-18T04:29:31.088Z,100901.43
2018-03-18T04:34:32.461Z,100892.31
2018-03-18T04:39:34.695Z,100913.37
2018-03-18T04:44:36.065Z,100901.08
2018-03-18T04:49:38.299Z,100901.08
2018-03-18T04:54:40.385Z,100927.92
2018-03-18T04:59:41.759Z,100919.67
2018-03-18T05:04:43.121Z,100924.77
2018-03-18T05:09:44.491Z,100921.11
2018-03-18T05:14:45.870Z,100927.82
2018-03-18T05:19:47.699Z,100923.81
2018-03-18T05:24:49.140Z,100938.53
2018-03-18T05:29:51.410Z,100942.00
2018-03-18T05:34:52.829Z,100941.06
2018-03-18T05:39:54.232Z,100946.56
2018-03-18T05:44:56.341Z,100941.25
2018-03-18T05:49:58.791Z,100957.47
2018-03-18T05:55:00.600Z,100968.23
2018-03-18T06:00:02.120Z,100958.03
2018-03-18T06:05:03.854Z,100974.98
2018-03-18T06:10:05.802Z,100969.50
2018-03-18T06:15:07.176Z,100974.68
2018-03-18T06:20:09.527Z,100980.95
2018-03-18T06:25:10.951Z,100986.23
2018-03-18T06:30:13.188Z,100986.04
2018-03-18T06:35:14.549Z,100991.93
2018-03-18T06:40:16.661Z,100988.87
2018-03-18T06:45:18.767Z,100987.71
2018-03-18T06:50:20.106Z,100991.05
2018-03-18T06:55:23.634Z,100991.37
2018-03-18T07:00:25.008Z,100998.74
2018-03-18T07:05:26.389Z,101031.08
2018-03-18T07:10:27.783Z,101026.62
2018-03-18T07:15:29.172Z,101018.14
2018-03-18T07:20:30.937Z,101028.48
2018-03-18T07:25:32.298Z,101021.30
2018-03-18T07:30:33.639Z,101037.90
2018-03-18T07:35:36.680Z,101038.38
2018-03-18T07:40:38.035Z,101026.40
2018-03-18T07:45:39.438Z,101034.00
2018-03-18T07:50:40.761Z,101031.62
2018-03-18T07:55:42.107Z,101032.23
2018-03-18T08:00:43.722Z,101041.79
2018-03-18T08:05:45.115Z,101031.73
2018-03-18T08:10:46.449Z,101033.59
2018-03-18T08:15:47.848Z,101065.69
2018-03-18T08:20:49.256Z,101060.61
2018-03-18T08:25:50.637Z,101066.67
2018-03-18T08:30:52.012Z,101072.62
2018-03-18T08:35:53.429Z,101076.20
2018-03-18T08:40:54.744Z,101055.94
2018-03-18T08:45:56.539Z,101081.49
2018-03-18T08:50:57.920Z,101076.92
2018-03-18T08:55:59.257Z,101084.37
2018-03-18T09:01:00.576Z,101069.35
2018-03-18T09:06:01.973Z,101086.48
2018-03-18T09:11:03.363Z,101079.20
2018-03-18T09:16:04.724Z,101073.14
2018-03-18T09:21:06.087Z,101102.39
2018-03-18T09:26:07.434Z,101083.52
2018-03-18T09:31:08.808Z,101087.44
2018-03-18T09:36:10.170Z,101090.95
2018-03-18T09:41:11.530Z,101088.19
2018-03-18T09:46:13.037Z,101086.09
2018-03-18T09:51:14.435Z,101116.93
2018-03-18T09:56:15.935Z,101095.72
2018-03-18T10:01:17.453Z,101072.86
2018-03-18T10:06:18.892Z,101081.20
2018-03-18T10:11:20.297Z,101069.14
2018-03-18T10:16:22.355Z,101077.98
2018-03-18T10:21:24.297Z,101072.11
2018-03-18T10:26:25.860Z,101070.66
2018-03-18T10:31:27.293Z,101089.45
2018-03-18T10:36:29.347Z,101078.33
2018-03-18T10:41:30.663Z,101077.53
2018-03-18T10:46:32.160Z,101085.91
2018-03-18T10:51:34.387Z,101069.03
2018-03-18T10:56:36.347Z,101089.05
2018-03-18T11:01:44.313Z,101090.73
2018-03-18T11:06:45.701Z,101071.98
2018-03-18T11:11:47.062Z,101072.77
2018-03-18T11:16:49.001Z,101080.86
2018-03-18T11:21:50.586Z,101101.61
2018-03-18T11:26:51.968Z,101081.05
2018-03-18T11:31:54.257Z,101096.25
2018-03-18T11:36:55.676Z,101090.48
2018-03-18T11:41:57.039Z,101088.39
2018-03-18T11:46:58.457Z,101087.14
2018-03-18T11:51:59.840Z,101086.66
2018-03-18T11:57:01.500Z,101084.22
2018-03-18T12:02:02.984Z,101095.45
2018-03-18T12:07:05.074Z,101078.11
2018-03-18T12:12:06.430Z,101067.98
2018-03-18T12:17:07.783Z,101085.56
2018-03-18T12:22:09.156Z,101058.46
2018-03-18T12:27:10.479Z,101051.13
2018-03-18T12:32:11.848Z,101045.19
2018-03-18T12:37:14.087Z,101041.34
2018-03-18T12:47:58.845Z,101036.80
2018-03-18T12:53:00.314Z,101034.28
2018-03-18T12:58:02.092Z,101022.18
2018-03-18T13:03:03.532Z,101029.47
2018-03-18T13:08:11.770Z,101016.17
2018-03-18T13:13:13.455Z,101023.60
2018-03-18T13:18:15.548Z,101019.22
2018-03-18T13:23:16.908Z,101014.96
2018-03-18T13:28:18.292Z,101024.50
2018-03-18T13:33:19.638Z,101018.45
2018-03-18T13:38:21.001Z,101001.59
2018-03-18T13:43:22.394Z,101003.73
2018-03-18T13:48:23.752Z,100996.42
2018-03-18T13:53:25.118Z,100996.38
2018-03-18T13:58:26.563Z,100980.88
2018-03-18T14:03:27.962Z,100977.06
2018-03-18T14:08:29.350Z,100986.14
2018-03-18T14:13:30.693Z,100971.48
2018-03-18T14:18:32.179Z,100972.73
2018-03-18T14:23:33.536Z,100963.27
2018-03-18T14:28:34.974Z,100965.87
2018-03-18T14:33:36.363Z,100961.95
2018-03-18T14:38:37.728Z,100957.69
2018-03-18T14:43:39.102Z,100941.24
2018-03-18T14:48:41.241Z,100963.20
2018-03-18T14:53:42.614Z,100958.45
2018-03-18T14:58:43.953Z,100946.83
2018-03-18T15:03:45.325Z,100965.44
2018-03-18T15:08:46.663Z,100957.70
2018-03-18T15:13:48.734Z,100969.33
2018-03-18T15:18:50.111Z,100970.63
2018-03-18T15:23:51.450Z,100969.76
2018-03-18T15:28:52.821Z,100942.61
2018-03-18T15:33:54.219Z,100947.35
2018-03-18T15:38:55.580Z,100946.91
2018-03-18T15:43:56.972Z,100952.09
2018-03-18T15:48:58.404Z,100939.61
2018-03-18T15:53:59.814Z,100934.44
2018-03-18T15:59:01.220Z,100925.39
2018-03-18T16:04:02.678Z,100927.11
2018-03-18T16:09:04.074Z,100944.34
2018-03-18T16:14:06.198Z,100930.53
2018-03-18T16:19:07.598Z,100943.48
2018-03-18T16:24:09.028Z,100940.40
2018-03-18T16:29:29.744Z,100943.84
2018-03-18T16:34:31.159Z,100952.41
2018-03-18T16:39:32.572Z,100946.77
2018-03-18T16:44:33.907Z,100970.11
2018-03-18T16:49:35.259Z,100976.97
2018-03-18T16:54:36.630Z,100966.52
2018-03-18T16:59:38.007Z,100976.77
2018-03-18T17:04:39.345Z,100978.16
2018-03-18T17:09:41.428Z,100988.85
2018-03-18T17:14:42.796Z,100990.51
2018-03-18T17:19:44.157Z,100995.14
2018-03-18T17:24:45.515Z,100993.45
2018-03-18T17:29:47.623Z,101009.33
2018-03-18T17:34:49.755Z,101021.36
2018-03-18T17:39:51.152Z,101029.41
2018-03-18T17:45:10.872Z,101033.37
2018-03-18T17:50:19.240Z,101043.16
2018-03-18T17:55:31.020Z,101048.73
2018-03-18T18:00:32.408Z,101060.75
2018-03-18T18:05:33.740Z,101061.63
2018-03-18T18:10:35.151Z,101069.28
2018-03-18T18:15:36.613Z,101074.85
2018-03-18T18:20:37.999Z,101083.51
2018-03-18T18:25:39.494Z,101084.23
2018-03-18T18:30:40.971Z,101093.84
2018-03-18T18:35:43.201Z,101092.48
2018-03-18T18:40:44.716Z,101075.20
2018-03-18T18:45:46.140Z,101096.34
2018-03-18T18:50:47.646Z,101096.23
2018-03-18T18:55:51.919Z,101099.27
2018-03-18T19:00:53.367Z,101099.09
2018-03-18T19:05:54.812Z,101108.92
2018-03-18T19:10:56.920Z,101106.76
2018-03-18T19:15:58.282Z,101117.83
2018-03-18T19:20:59.648Z,101120.84
2018-03-18T19:26:01.038Z,101129.02
2018-03-18T19:31:03.299Z,101124.69
2018-03-18T19:36:05.491Z,101119.09
2018-03-18T19:41:07.585Z,101116.19
2018-03-18T19:46:09.944Z,101111.63
2018-03-18T19:51:11.364Z,101116.13
2018-03-18T19:56:12.776Z,101135.35
2018-03-18T20:01:14.195Z,101125.81
2018-03-18T20:06:16.042Z,101127.61
2018-03-18T20:11:17.417Z,101129.72
2018-03-18T20:16:18.861Z,101136.05
2018-03-18T20:21:20.251Z,101132.64
2018-03-18T20:26:21.680Z,101141.19
2018-03-18T20:31:23.123Z,101139.34
2018-03-18T20:36:24.522Z,101143.08
2018-03-18T20:41:25.887Z,101134.66
2018-03-18T20:46:27.282Z,101130.25
2018-03-18T20:51:28.930Z,101128.10
2018-03-18T20:56:31.092Z,101137.09
2018-03-18T21:01:32.441Z,101150.76
2018-03-18T21:06:33.885Z,101142.46
2018-03-18T21:11:35.312Z,101143.80
2018-03-18T21:16:38.642Z,101142.42
2018-03-18T21:21:40.068Z,101142.81
2018-03-18T21:26:41.500Z,101135.89
2018-03-18T21:31:42.869Z,101138.92
2018-03-18T21:36:44.241Z,101129.00
2018-03-18T21:41:45.647Z,101139.40
2018-03-18T21:46:47.064Z,101128.53
2018-03-18T21:51:48.450Z,101139.23
2018-03-18T21:56:49.849Z,101150.25
2018-03-18T22:01:51.946Z,101148.69
2018-03-18T22:06:53.313Z,101142.42
2018-03-18T22:11:54.688Z,101139.88
2018-03-18T22:16:56.087Z,101136.09
2018-03-18T22:21:57.464Z,101143.23
2018-03-18T22:26:59.724Z,101148.34
2018-03-18T22:32:01.122Z,101155.95
2018-03-18T22:37:02.572Z,101136.45
2018-03-18T22:42:03.950Z,101149.04
2018-03-18T22:47:07.534Z,101148.17
2018-03-18T22:52:09.077Z,101143.87
2018-03-18T22:57:11.321Z,101152.77
2018-03-18T23:02:12.713Z,101153.73
2018-03-18T23:07:14.166Z,101145.61
2018-03-18T23:12:16.063Z,101147.05
2018-03-18T23:17:18.156Z,101149.40
2018-03-18T23:22:20.390Z,101145.50
2018-03-18T23:27:21.752Z,101151.48
2018-03-18T23:32:23.140Z,101145.49
2018-03-18T23:37:25.291Z,101136.41
2018-03-18T23:42:26.670Z,101135.23
2018-03-18T23:47:28.028Z,101134.79
2018-03-18T23:52:29.376Z,101142.10
2018-03-18T23:57:30.764Z,101128.82
